PWSweather.com
Personal Weather Stations
Station Observations
APRSFL1
Magnolia Valley, New Port Richey, FL 34653

Magnolia ValleyNew Port Richey, FL 34653

Lat: 28.26, Lon: -82.688

Elevation: 19

Station Type: Davis Vantage Pro 2 Plus with 70ft high Webcam

http://www.aprsfl.net/weather

Latest ConditionsUpdated 7:20:08 PM EDT Monday, Sep 1, 2014
Currently Today's Max Today's Min Today's Average
Temperature 85.3°F29.6°C 92.4°F33.6°C 73.0°F22.8°C 81.0°F27.2°C
Dew Point 76.9°F24.9°C 79.0°F26.1°C 72.4°F22.4°C 75.1°F23.9°C
Winds 1.0 mph NW1.6 kmh NW 11.0 mph W17.7 kmh W - 2.2 mph 3.5 kmh
Wind Gusts 2.0 mph3.2 kmh 12.0 mph19.3 kmh - -
Humidity 76% 98% 56% 84%
Pressure 30.07 in1018.3 mb 30.16 in1021.3 mb 30.06 in1017.9 mb -
Hour Temp Dew Point Humidity Winds Wind Gusts Pressure Precip Precip Rate Daily Precip Total
07:20 PM 85.3°F29.6°C 76.9°F24.9°C 76% 1.0 mph NW1.6 kmh NW 2.0 mph3.2 kmh 30.07 in1018.3 mb 0.00 in0.0 mm 0.00 in/hr0.0 mm/hr 0.01 in0.3 mm
07:15 PM 85.4°F29.7°C 77.0°F25.0°C 76% 2.0 mph NW3.2 kmh NW 3.0 mph4.8 kmh 30.07 in1018.3 mb 0.00 in0.0 mm 0.00 in/hr0.0 mm/hr 0.01 in0.3 mm
07:10 PM 85.4°F29.7°C 77.0°F25.0°C 76% 3.0 mph NNW4.8 kmh NNW 4.0 mph6.4 kmh 30.07 in1018.3 mb 0.00 in0.0 mm 0.00 in/hr0.0 mm/hr 0.01 in0.3 mm
07:05 PM 85.5°F29.7°C 77.1°F25.1°C 76% 4.0 mph NW6.4 kmh NW 8.0 mph12.9 kmh 30.07 in1018.3 mb 0.00 in0.0 mm 0.00 in/hr0.0 mm/hr 0.01 in0.3 mm
07:00 PM 85.9°F29.9°C 77.1°F25.1°C 75% 2.0 mph NW3.2 kmh NW 2.0 mph3.2 kmh 30.07 in1018.3 mb 0.00 in0.0 mm 0.00 in/hr0.0 mm/hr 0.01 in0.3 mm
06:55 PM 86.2°F30.1°C 77.4°F25.2°C 75% 5.0 mph NW8.0 kmh NW 9.0 mph14.5 kmh 30.07 in1018.3 mb 0.00 in0.0 mm 0.00 in/hr0.0 mm/hr 0.01 in0.3 mm
06:50 PM 86.5°F30.3°C 77.2°F25.1°C 74% 3.0 mph NW4.8 kmh NW 5.0 mph8.0 kmh 30.07 in1018.3 mb 0.00 in0.0 mm 0.00 in/hr0.0 mm/hr 0.01 in0.3 mm
06:45 PM 86.7°F30.4°C 77.4°F25.2°C 74% 2.0 mph NW3.2 kmh NW 4.0 mph6.4 kmh 30.07 in1018.3 mb 0.00 in0.0 mm 0.00 in/hr0.0 mm/hr 0.01 in0.3 mm
06:40 PM 86.6°F30.3°C 77.3°F25.2°C 74% 4.0 mph NW6.4 kmh NW 6.0 mph9.7 kmh 30.07 in1018.3 mb 0.00 in0.0 mm 0.00 in/hr0.0 mm/hr 0.01 in0.3 mm
06:35 PM 86.8°F30.4°C 77.1°F25.1°C 73% 1.0 mph NW1.6 kmh NW 4.0 mph6.4 kmh 30.07 in1018.3 mb 0.00 in0.0 mm 0.00 in/hr0.0 mm/hr 0.01 in0.3 mm
06:30 PM 87.0°F30.6°C 77.3°F25.2°C 73% 3.0 mph W4.8 kmh W 3.0 mph4.8 kmh 30.07 in1018.3 mb 0.00 in0.0 mm 0.00 in/hr0.0 mm/hr 0.01 in0.3 mm
06:25 PM 87.2°F30.7°C 77.5°F25.3°C 73% 3.0 mph WNW4.8 kmh WNW 4.0 mph6.4 kmh 30.07 in1018.3 mb 0.00 in0.0 mm 0.00 in/hr0.0 mm/hr 0.01 in0.3 mm
06:20 PM 87.5°F30.8°C 77.8°F25.4°C 73% 3.0 mph NW4.8 kmh NW 5.0 mph8.0 kmh 30.07 in1018.3 mb 0.00 in0.0 mm 0.00 in/hr0.0 mm/hr 0.01 in0.3 mm
06:15 PM 87.7°F30.9°C 77.6°F25.3°C 72% 8.0 mph WNW12.9 kmh WNW 8.0 mph12.9 kmh 30.06 in1017.9 mb 0.00 in0.0 mm 0.00 in/hr0.0 mm/hr 0.01 in0.3 mm
06:10 PM 87.7°F30.9°C 77.1°F25.1°C 71% 3.0 mph WSW4.8 kmh WSW 8.0 mph12.9 kmh 30.06 in1017.9 mb 0.00 in0.0 mm 0.00 in/hr0.0 mm/hr 0.01 in0.3 mm
06:05 PM 88.0°F31.1°C 77.4°F25.2°C 71% 3.0 mph NW4.8 kmh NW 4.0 mph6.4 kmh 30.06 in1017.9 mb 0.00 in0.0 mm 0.00 in/hr0.0 mm/hr 0.01 in0.3 mm
06:00 PM 88.1°F31.2°C 77.5°F25.3°C 71% 3.0 mph NW4.8 kmh NW 8.0 mph12.9 kmh 30.07 in1018.3 mb 0.00 in0.0 mm 0.00 in/hr0.0 mm/hr 0.01 in0.3 mm
05:55 PM 88.1°F31.2°C 77.5°F25.3°C 71% 3.0 mph NW4.8 kmh NW 6.0 mph9.7 kmh 30.06 in1017.9 mb 0.00 in0.0 mm 0.00 in/hr0.0 mm/hr 0.01 in0.3 mm
05:50 PM 87.9°F31.1°C 77.3°F25.2°C 71% 4.0 mph WSW6.4 kmh WSW 6.0 mph9.7 kmh 30.06 in1017.9 mb 0.00 in0.0 mm 0.00 in/hr0.0 mm/hr 0.01 in0.3 mm
05:45 PM 88.6°F31.4°C 78.0°F25.6°C 71% 11.0 mph W17.7 kmh W 12.0 mph19.3 kmh 30.06 in1017.9 mb 0.00 in0.0 mm 0.00 in/hr0.0 mm/hr 0.01 in0.3 mm
05:40 PM 88.2°F31.2°C 77.6°F25.3°C 71% 2.0 mph W3.2 kmh W 4.0 mph6.4 kmh 30.06 in1017.9 mb 0.00 in0.0 mm 0.00 in/hr0.0 mm/hr 0.01 in0.3 mm
05:35 PM 88.4°F31.3°C 77.8°F25.4°C 71% 7.0 mph WSW11.3 kmh WSW 9.0 mph14.5 kmh 30.07 in1018.3 mb 0.00 in0.0 mm 0.00 in/hr0.0 mm/hr 0.01 in0.3 mm
05:30 PM 88.7°F31.5°C 77.7°F25.4°C 70% 6.0 mph NW9.7 kmh NW 9.0 mph14.5 kmh 30.07 in1018.3 mb 0.00 in0.0 mm 0.00 in/hr0.0 mm/hr 0.01 in0.3 mm
05:25 PM 89.2°F31.8°C 78.6°F25.9°C 71% 4.0 mph NNW6.4 kmh NNW 5.0 mph8.0 kmh 30.07 in1018.3 mb 0.00 in0.0 mm 0.00 in/hr0.0 mm/hr 0.01 in0.3 mm
05:20 PM 88.9°F31.6°C 78.3°F25.7°C 71% 6.0 mph NW9.7 kmh NW 10.0 mph16.1 kmh 30.07 in1018.3 mb 0.00 in0.0 mm 0.00 in/hr0.0 mm/hr 0.01 in0.3 mm
05:15 PM 88.4°F31.3°C 77.8°F25.4°C 71% 3.0 mph NW4.8 kmh NW 8.0 mph12.9 kmh 30.07 in1018.3 mb 0.00 in0.0 mm 0.00 in/hr0.0 mm/hr 0.01 in0.3 mm
05:10 PM 88.4°F31.3°C 77.8°F25.4°C 71% 9.0 mph WSW14.5 kmh WSW 10.0 mph16.1 kmh 30.07 in1018.3 mb 0.00 in0.0 mm 0.00 in/hr0.0 mm/hr 0.01 in0.3 mm
05:05 PM 88.7°F31.5°C 77.7°F25.4°C 70% 8.0 mph W12.9 kmh W 8.0 mph12.9 kmh 30.07 in1018.3 mb 0.00 in0.0 mm 0.00 in/hr0.0 mm/hr 0.01 in0.3 mm
05:00 PM 88.9°F31.6°C 77.9°F25.5°C 70% 3.0 mph WNW4.8 kmh WNW 3.0 mph4.8 kmh 30.07 in1018.3 mb 0.00 in0.0 mm 0.00 in/hr0.0 mm/hr 0.01 in0.3 mm
04:55 PM 88.8°F31.6°C 78.2°F25.7°C 71% 3.0 mph N4.8 kmh N 4.0 mph6.4 kmh 30.07 in1018.3 mb 0.00 in0.0 mm 0.00 in/hr0.0 mm/hr 0.01 in0.3 mm
04:50 PM 88.6°F31.4°C 77.6°F25.3°C 70% 3.0 mph SW4.8 kmh SW 6.0 mph9.7 kmh 30.07 in1018.3 mb 0.00 in0.0 mm 0.00 in/hr0.0 mm/hr 0.01 in0.3 mm
04:45 PM 88.2°F31.2°C 77.2°F25.1°C 70% 3.0 mph WNW4.8 kmh WNW 4.0 mph6.4 kmh 30.07 in1018.3 mb 0.00 in0.0 mm 0.00 in/hr0.0 mm/hr 0.01 in0.3 mm
04:40 PM 88.4°F31.3°C 77.8°F25.4°C 71% 8.0 mph W12.9 kmh W 9.0 mph14.5 kmh 30.07 in1018.3 mb 0.00 in0.0 mm 0.00 in/hr0.0 mm/hr 0.01 in0.3 mm
04:35 PM 88.2°F31.2°C 77.6°F25.3°C 71% 2.0 mph W3.2 kmh W 7.0 mph11.3 kmh 30.08 in1018.6 mb 0.00 in0.0 mm 0.00 in/hr0.0 mm/hr 0.01 in0.3 mm
04:30 PM 88.6°F31.4°C 77.1°F25.1°C 69% 5.0 mph WNW8.0 kmh WNW 6.0 mph9.7 kmh 30.08 in1018.6 mb 0.00 in0.0 mm 0.00 in/hr0.0 mm/hr 0.01 in0.3 mm
04:25 PM 88.8°F31.6°C 77.3°F25.2°C 69% 7.0 mph W11.3 kmh W 7.0 mph11.3 kmh 30.08 in1018.6 mb 0.00 in0.0 mm 0.00 in/hr0.0 mm/hr 0.01 in0.3 mm
04:20 PM 88.0°F31.1°C 77.4°F25.2°C 71% 3.0 mph NW4.8 kmh NW 5.0 mph8.0 kmh 30.08 in1018.6 mb 0.00 in0.0 mm 0.00 in/hr0.0 mm/hr 0.01 in0.3 mm
04:15 PM 88.4°F31.3°C 76.9°F24.9°C 69% 4.0 mph NW6.4 kmh NW 9.0 mph14.5 kmh 30.08 in1018.6 mb 0.00 in0.0 mm 0.00 in/hr0.0 mm/hr 0.01 in0.3 mm
04:10 PM 89.1°F31.7°C 77.6°F25.3°C 69% 9.0 mph NNW14.5 kmh NNW 11.0 mph17.7 kmh 30.08 in1018.6 mb 0.00 in0.0 mm 0.00 in/hr0.0 mm/hr 0.01 in0.3 mm
04:05 PM 89.7°F32.1°C 77.7°F25.4°C 68% 9.0 mph NNW14.5 kmh NNW 9.0 mph14.5 kmh 30.08 in1018.6 mb 0.00 in0.0 mm 0.00 in/hr0.0 mm/hr 0.01 in0.3 mm
04:00 PM 90.1°F32.3°C 78.6°F25.9°C 69% 8.0 mph NW12.9 kmh NW 8.0 mph12.9 kmh 30.08 in1018.6 mb 0.00 in0.0 mm 0.00 in/hr0.0 mm/hr 0.01 in0.3 mm
03:55 PM 90.0°F32.2°C 78.0°F25.6°C 68% 1.0 mph WNW1.6 kmh WNW 3.0 mph4.8 kmh 30.08 in1018.6 mb 0.00 in0.0 mm 0.00 in/hr0.0 mm/hr 0.01 in0.3 mm
03:50 PM 90.2°F32.3°C 77.8°F25.4°C 67% 8.0 mph WNW12.9 kmh WNW 11.0 mph17.7 kmh 30.08 in1018.6 mb 0.00 in0.0 mm 0.00 in/hr0.0 mm/hr 0.01 in0.3 mm
03:45 PM 90.0°F32.2°C 77.1°F25.1°C 66% 2.0 mph NNE3.2 kmh NNE 3.0 mph4.8 kmh 30.09 in1019.0 mb 0.00 in0.0 mm 0.00 in/hr0.0 mm/hr 0.01 in0.3 mm
03:40 PM 89.8°F32.1°C 76.5°F24.7°C 65% 4.0 mph NNW6.4 kmh NNW 5.0 mph8.0 kmh 30.08 in1018.6 mb 0.00 in0.0 mm 0.00 in/hr0.0 mm/hr 0.01 in0.3 mm
03:35 PM 89.4°F31.9°C 76.6°F24.8°C 66% 5.0 mph NW8.0 kmh NW 9.0 mph14.5 kmh 30.08 in1018.6 mb 0.00 in0.0 mm 0.00 in/hr0.0 mm/hr 0.01 in0.3 mm
03:30 PM 88.9°F31.6°C 76.5°F24.7°C 67% 4.0 mph NW6.4 kmh NW 7.0 mph11.3 kmh 30.09 in1019.0 mb 0.00 in0.0 mm 0.00 in/hr0.0 mm/hr 0.01 in0.3 mm
03:25 PM 89.3°F31.8°C 76.5°F24.7°C 66% 6.0 mph NW9.7 kmh NW 6.0 mph9.7 kmh 30.09 in1019.0 mb 0.00 in0.0 mm 0.00 in/hr0.0 mm/hr 0.01 in0.3 mm
03:20 PM 89.4°F31.9°C 76.1°F24.5°C 65% 3.0 mph WSW4.8 kmh WSW 4.0 mph6.4 kmh 30.09 in1019.0 mb 0.00 in0.0 mm 0.00 in/hr0.0 mm/hr 0.01 in0.3 mm
03:15 PM 89.3°F31.8°C 76.9°F24.9°C 67% 7.0 mph NW11.3 kmh NW 7.0 mph11.3 kmh 30.10 in1019.3 mb 0.00 in0.0 mm 0.00 in/hr0.0 mm/hr 0.01 in0.3 mm
03:10 PM 89.1°F31.7°C 77.2°F25.1°C 68% 5.0 mph NNW8.0 kmh NNW 8.0 mph12.9 kmh 30.10 in1019.3 mb 0.00 in0.0 mm 0.00 in/hr0.0 mm/hr 0.01 in0.3 mm
03:05 PM 88.1°F31.2°C 77.1°F25.1°C 70% 5.0 mph NW8.0 kmh NW 9.0 mph14.5 kmh 30.10 in1019.3 mb 0.00 in0.0 mm 0.00 in/hr0.0 mm/hr 0.01 in0.3 mm
03:00 PM 87.5°F30.8°C 76.1°F24.5°C 69% 3.0 mph WSW4.8 kmh WSW 7.0 mph11.3 kmh 30.10 in1019.3 mb 0.00 in0.0 mm 0.00 in/hr0.0 mm/hr 0.01 in0.3 mm
02:55 PM 87.7°F30.9°C 76.3°F24.6°C 69% 2.0 mph WNW3.2 kmh WNW 2.0 mph3.2 kmh 30.11 in1019.6 mb 0.00 in0.0 mm 0.00 in/hr0.0 mm/hr 0.01 in0.3 mm
02:50 PM 88.1°F31.2°C 76.2°F24.6°C 68% 8.0 mph WNW12.9 kmh WNW 10.0 mph16.1 kmh 30.11 in1019.6 mb 0.00 in0.0 mm 0.00 in/hr0.0 mm/hr 0.01 in0.3 mm
02:45 PM 89.0°F31.7°C 76.2°F24.6°C 66% 9.0 mph NW14.5 kmh NW 9.0 mph14.5 kmh 30.11 in1019.6 mb 0.00 in0.0 mm 0.00 in/hr0.0 mm/hr 0.01 in0.3 mm
02:40 PM 90.6°F32.6°C 76.3°F24.6°C 63% 7.0 mph NW11.3 kmh NW 7.0 mph11.3 kmh 30.11 in1019.6 mb 0.00 in0.0 mm 0.00 in/hr0.0 mm/hr 0.01 in0.3 mm
02:35 PM 92.4°F33.6°C 74.4°F23.6°C 56% 3.0 mph NW4.8 kmh NW 4.0 mph6.4 kmh 30.11 in1019.6 mb 0.00 in0.0 mm 0.00 in/hr0.0 mm/hr 0.01 in0.3 mm
02:30 PM 91.3°F32.9°C 75.0°F23.9°C 59% 2.0 mph S3.2 kmh S 3.0 mph4.8 kmh 30.11 in1019.6 mb 0.00 in0.0 mm 0.00 in/hr0.0 mm/hr 0.01 in0.3 mm
02:25 PM 90.1°F32.3°C 73.9°F23.3°C 59% 2.0 mph SE3.2 kmh SE 3.0 mph4.8 kmh 30.12 in1020.0 mb 0.00 in0.0 mm 0.00 in/hr0.0 mm/hr 0.01 in0.3 mm
02:20 PM 91.3°F32.9°C 75.0°F23.9°C 59% 6.0 mph ESE9.7 kmh ESE 6.0 mph9.7 kmh 30.12 in1020.0 mb 0.00 in0.0 mm 0.00 in/hr0.0 mm/hr 0.01 in0.3 mm
02:15 PM 91.4°F33.0°C 75.6°F24.2°C 60% 4.0 mph E6.4 kmh E 6.0 mph9.7 kmh 30.12 in1020.0 mb 0.00 in0.0 mm 0.00 in/hr0.0 mm/hr 0.01 in0.3 mm
02:10 PM 89.9°F32.2°C 75.6°F24.2°C 63% 1.0 mph E1.6 kmh E 2.0 mph3.2 kmh 30.12 in1020.0 mb 0.00 in0.0 mm 0.00 in/hr0.0 mm/hr 0.01 in0.3 mm
02:05 PM 89.0°F31.7°C 75.7°F24.3°C 65% Calm Calm -- 30.12 in1020.0 mb 0.00 in0.0 mm 0.00 in/hr0.0 mm/hr 0.01 in0.3 mm
02:00 PM 89.5°F31.9°C 74.8°F23.8°C 62% 1.0 mph S1.6 kmh S 1.0 mph1.6 kmh 30.13 in1020.3 mb 0.00 in0.0 mm 0.00 in/hr0.0 mm/hr 0.01 in0.3 mm
01:55 PM 89.9°F32.2°C 75.6°F24.2°C 63% 4.0 mph E6.4 kmh E 6.0 mph9.7 kmh 30.13 in1020.3 mb 0.00 in0.0 mm 0.00 in/hr0.0 mm/hr 0.01 in0.3 mm
01:50 PM 89.9°F32.2°C 74.7°F23.7°C 61% 4.0 mph SE6.4 kmh SE 4.0 mph6.4 kmh 30.13 in1020.3 mb 0.00 in0.0 mm 0.00 in/hr0.0 mm/hr 0.01 in0.3 mm
01:45 PM 90.2°F32.3°C 74.5°F23.6°C 60% 2.0 mph ESE3.2 kmh ESE 3.0 mph4.8 kmh 30.13 in1020.3 mb 0.00 in0.0 mm 0.00 in/hr0.0 mm/hr 0.01 in0.3 mm
01:40 PM 88.7°F31.5°C 73.5°F23.1°C 61% 2.0 mph ESE3.2 kmh ESE 3.0 mph4.8 kmh 30.13 in1020.3 mb 0.00 in0.0 mm 0.00 in/hr0.0 mm/hr 0.01 in0.3 mm
01:35 PM 88.6°F31.4°C 73.9°F23.3°C 62% 3.0 mph ESE4.8 kmh ESE 3.0 mph4.8 kmh 30.13 in1020.3 mb 0.00 in0.0 mm 0.00 in/hr0.0 mm/hr 0.01 in0.3 mm
01:30 PM 90.1°F32.3°C 74.9°F23.8°C 61% 1.0 mph ESE1.6 kmh ESE 1.0 mph1.6 kmh 30.13 in1020.3 mb 0.00 in0.0 mm 0.00 in/hr0.0 mm/hr 0.01 in0.3 mm
01:25 PM 91.0°F32.8°C 75.2°F24.0°C 60% Calm Calm -- 30.14 in1020.7 mb 0.00 in0.0 mm 0.00 in/hr0.0 mm/hr 0.01 in0.3 mm
01:20 PM 90.2°F32.3°C 75.4°F24.1°C 62% Calm Calm 1.0 mph1.6 kmh 30.14 in1020.7 mb 0.00 in0.0 mm 0.00 in/hr0.0 mm/hr 0.01 in0.3 mm
01:15 PM 90.3°F32.4°C 75.0°F23.9°C 61% 6.0 mph SSE9.7 kmh SSE 6.0 mph9.7 kmh 30.14 in1020.7 mb 0.00 in0.0 mm 0.00 in/hr0.0 mm/hr 0.01 in0.3 mm
01:10 PM 90.1°F32.3°C 75.3°F24.1°C 62% 3.0 mph S4.8 kmh S 4.0 mph6.4 kmh 30.14 in1020.7 mb 0.00 in0.0 mm 0.00 in/hr0.0 mm/hr 0.01 in0.3 mm
01:05 PM 89.5°F31.9°C 74.3°F23.5°C 61% 7.0 mph E11.3 kmh E 9.0 mph14.5 kmh 30.14 in1020.7 mb 0.00 in0.0 mm 0.00 in/hr0.0 mm/hr 0.01 in0.3 mm
01:00 PM 88.2°F31.2°C 75.4°F24.1°C 66% 1.0 mph SE1.6 kmh SE 2.0 mph3.2 kmh 30.14 in1020.7 mb 0.00 in0.0 mm 0.00 in/hr0.0 mm/hr 0.01 in0.3 mm
12:55 PM 88.5°F31.4°C 73.8°F23.2°C 62% 1.0 mph SE1.6 kmh SE 2.0 mph3.2 kmh 30.14 in1020.7 mb 0.00 in0.0 mm 0.00 in/hr0.0 mm/hr 0.01 in0.3 mm
12:50 PM 89.3°F31.8°C 75.1°F23.9°C 63% 3.0 mph SE4.8 kmh SE 3.0 mph4.8 kmh 30.14 in1020.7 mb 0.00 in0.0 mm 0.00 in/hr0.0 mm/hr 0.01 in0.3 mm
12:45 PM 88.7°F31.5°C 75.0°F23.9°C 64% 1.0 mph ESE1.6 kmh ESE 1.0 mph1.6 kmh 30.14 in1020.7 mb 0.00 in0.0 mm 0.00 in/hr0.0 mm/hr 0.01 in0.3 mm
12:40 PM 88.4°F31.3°C 76.1°F24.5°C 67% 3.0 mph SE4.8 kmh SE 4.0 mph6.4 kmh 30.14 in1020.7 mb 0.00 in0.0 mm 0.00 in/hr0.0 mm/hr 0.01 in0.3 mm
12:35 PM 87.8°F31.0°C 75.9°F24.4°C 68% 4.0 mph ESE6.4 kmh ESE 9.0 mph14.5 kmh 30.14 in1020.7 mb 0.00 in0.0 mm 0.00 in/hr0.0 mm/hr 0.01 in0.3 mm
12:30 PM 87.7°F30.9°C 76.3°F24.6°C 69% 1.0 mph SE1.6 kmh SE 1.0 mph1.6 kmh 30.14 in1020.7 mb 0.00 in0.0 mm 0.00 in/hr0.0 mm/hr 0.01 in0.3 mm
12:25 PM 88.1°F31.2°C 77.1°F25.1°C 70% 1.0 mph ESE1.6 kmh ESE 3.0 mph4.8 kmh 30.14 in1020.7 mb 0.00 in0.0 mm 0.00 in/hr0.0 mm/hr 0.01 in0.3 mm
12:20 PM 88.0°F31.1°C 75.7°F24.3°C 67% 5.0 mph ENE8.0 kmh ENE 6.0 mph9.7 kmh 30.14 in1020.7 mb 0.00 in0.0 mm 0.00 in/hr0.0 mm/hr 0.01 in0.3 mm
12:15 PM 88.8°F31.6°C 76.0°F24.4°C 66% 2.0 mph ESE3.2 kmh ESE 4.0 mph6.4 kmh 30.14 in1020.7 mb 0.00 in0.0 mm 0.00 in/hr0.0 mm/hr 0.01 in0.3 mm
12:10 PM 88.8°F31.6°C 76.0°F24.4°C 66% 4.0 mph ENE6.4 kmh ENE 5.0 mph8.0 kmh 30.14 in1020.7 mb 0.00 in0.0 mm 0.00 in/hr0.0 mm/hr 0.01 in0.3 mm
12:05 PM 88.3°F31.3°C 74.6°F23.7°C 64% 3.0 mph ESE4.8 kmh ESE 4.0 mph6.4 kmh 30.14 in1020.7 mb 0.00 in0.0 mm 0.00 in/hr0.0 mm/hr 0.01 in0.3 mm
12:00 PM 88.2°F31.2°C 75.9°F24.4°C 67% 1.0 mph ESE1.6 kmh ESE 3.0 mph4.8 kmh 30.14 in1020.7 mb 0.00 in0.0 mm 0.00 in/hr0.0 mm/hr 0.01 in0.3 mm
11:55 AM 88.1°F31.2°C 74.9°F23.8°C 65% 4.0 mph SE6.4 kmh SE 7.0 mph11.3 kmh 30.15 in1021.0 mb 0.00 in0.0 mm 0.00 in/hr0.0 mm/hr 0.01 in0.3 mm
11:50 AM 88.1°F31.2°C 75.3°F24.1°C 66% 9.0 mph E14.5 kmh E 9.0 mph14.5 kmh 30.14 in1020.7 mb 0.00 in0.0 mm 0.00 in/hr0.0 mm/hr 0.01 in0.3 mm
11:45 AM 88.0°F31.1°C 75.7°F24.3°C 67% 2.0 mph SE3.2 kmh SE 5.0 mph8.0 kmh 30.15 in1021.0 mb 0.00 in0.0 mm 0.00 in/hr0.0 mm/hr 0.01 in0.3 mm
11:40 AM 87.7°F30.9°C 75.8°F24.3°C 68% 4.0 mph E6.4 kmh E 6.0 mph9.7 kmh 30.15 in1021.0 mb 0.00 in0.0 mm 0.00 in/hr0.0 mm/hr 0.01 in0.3 mm
11:35 AM 87.9°F31.1°C 75.1°F23.9°C 66% 2.0 mph ENE3.2 kmh ENE 4.0 mph6.4 kmh 30.15 in1021.0 mb 0.00 in0.0 mm 0.00 in/hr0.0 mm/hr 0.01 in0.3 mm
11:30 AM 87.6°F30.9°C 75.7°F24.3°C 68% 2.0 mph SE3.2 kmh SE 2.0 mph3.2 kmh 30.15 in1021.0 mb 0.00 in0.0 mm 0.00 in/hr0.0 mm/hr 0.01 in0.3 mm
11:25 AM 87.2°F30.7°C 77.1°F25.1°C 72% 1.0 mph SE1.6 kmh SE 4.0 mph6.4 kmh 30.15 in1021.0 mb 0.00 in0.0 mm 0.00 in/hr0.0 mm/hr 0.01 in0.3 mm
11:20 AM 87.1°F30.6°C 76.6°F24.8°C 71% 6.0 mph S9.7 kmh S 7.0 mph11.3 kmh 30.15 in1021.0 mb 0.00 in0.0 mm 0.00 in/hr0.0 mm/hr 0.01 in0.3 mm
11:15 AM 87.0°F30.6°C 76.9°F24.9°C 72% 4.0 mph SE6.4 kmh SE 5.0 mph8.0 kmh 30.15 in1021.0 mb 0.00 in0.0 mm 0.00 in/hr0.0 mm/hr 0.01 in0.3 mm
11:10 AM 86.3°F30.2°C 77.0°F25.0°C 74% 4.0 mph ESE6.4 kmh ESE 6.0 mph9.7 kmh 30.15 in1021.0 mb 0.00 in0.0 mm 0.00 in/hr0.0 mm/hr 0.01 in0.3 mm
11:05 AM 86.2°F30.1°C 77.4°F25.2°C 75% 5.0 mph SE8.0 kmh SE 5.0 mph8.0 kmh 30.16 in1021.3 mb 0.00 in0.0 mm 0.00 in/hr0.0 mm/hr 0.01 in0.3 mm
11:00 AM 86.0°F30.0°C 76.8°F24.9°C 74% 3.0 mph ESE4.8 kmh ESE 3.0 mph4.8 kmh 30.16 in1021.3 mb 0.00 in0.0 mm 0.00 in/hr0.0 mm/hr 0.01 in0.3 mm
10:55 AM 85.6°F29.8°C 77.2°F25.1°C 76% 3.0 mph E4.8 kmh E 4.0 mph6.4 kmh 30.16 in1021.3 mb 0.00 in0.0 mm 0.00 in/hr0.0 mm/hr 0.01 in0.3 mm
10:50 AM 85.5°F29.7°C 77.9°F25.5°C 78% 2.0 mph E3.2 kmh E 7.0 mph11.3 kmh 30.16 in1021.3 mb 0.00 in0.0 mm 0.00 in/hr0.0 mm/hr 0.01 in0.3 mm
10:45 AM 85.2°F29.6°C 78.0°F25.6°C 79% 2.0 mph ESE3.2 kmh ESE 2.0 mph3.2 kmh 30.16 in1021.3 mb 0.00 in0.0 mm 0.00 in/hr0.0 mm/hr 0.01 in0.3 mm
10:40 AM 84.9°F29.4°C 77.7°F25.4°C 79% 3.0 mph E4.8 kmh E 5.0 mph8.0 kmh 30.16 in1021.3 mb 0.00 in0.0 mm 0.00 in/hr0.0 mm/hr 0.01 in0.3 mm
10:35 AM 84.7°F29.3°C 79.0°F26.1°C 83% 2.0 mph ENE3.2 kmh ENE 2.0 mph3.2 kmh 30.16 in1021.3 mb 0.00 in0.0 mm 0.00 in/hr0.0 mm/hr 0.01 in0.3 mm
10:30 AM 84.1°F28.9°C 78.0°F25.6°C 82% 4.0 mph SE6.4 kmh SE 6.0 mph9.7 kmh 30.16 in1021.3 mb 0.00 in0.0 mm 0.00 in/hr0.0 mm/hr 0.01 in0.3 mm
10:25 AM 84.0°F28.9°C 77.9°F25.5°C 82% 4.0 mph SE6.4 kmh SE 9.0 mph14.5 kmh 30.16 in1021.3 mb 0.00 in0.0 mm 0.00 in/hr0.0 mm/hr 0.01 in0.3 mm
10:20 AM 83.6°F28.7°C 78.3°F25.7°C 84% 1.0 mph ESE1.6 kmh ESE 3.0 mph4.8 kmh 30.15 in1021.0 mb 0.00 in0.0 mm 0.00 in/hr0.0 mm/hr 0.01 in0.3 mm
10:15 AM 83.4°F28.6°C 78.1°F25.6°C 84% 3.0 mph ESE4.8 kmh ESE 5.0 mph8.0 kmh 30.15 in1021.0 mb 0.00 in0.0 mm 0.00 in/hr0.0 mm/hr 0.01 in0.3 mm
10:10 AM 83.3°F28.5°C 78.3°F25.7°C 85% 2.0 mph SE3.2 kmh SE 4.0 mph6.4 kmh 30.15 in1021.0 mb 0.00 in0.0 mm 0.00 in/hr0.0 mm/hr 0.01 in0.3 mm
10:05 AM 82.9°F28.3°C 78.3°F25.7°C 86% 2.0 mph SE3.2 kmh SE 2.0 mph3.2 kmh 30.15 in1021.0 mb 0.00 in0.0 mm 0.00 in/hr0.0 mm/hr 0.01 in0.3 mm
10:00 AM 82.7°F28.2°C 78.1°F25.6°C 86% 8.0 mph SE12.9 kmh SE 10.0 mph16.1 kmh 30.15 in1021.0 mb 0.00 in0.0 mm 0.00 in/hr0.0 mm/hr 0.01 in0.3 mm
09:55 AM 82.3°F27.9°C 78.1°F25.6°C 87% 4.0 mph ESE6.4 kmh ESE 4.0 mph6.4 kmh 30.15 in1021.0 mb 0.00 in0.0 mm 0.00 in/hr0.0 mm/hr 0.01 in0.3 mm
09:50 AM 82.0°F27.8°C 78.1°F25.6°C 88% 5.0 mph SE8.0 kmh SE 6.0 mph9.7 kmh 30.15 in1021.0 mb 0.00 in0.0 mm 0.00 in/hr0.0 mm/hr 0.01 in0.3 mm
09:45 AM 81.5°F27.5°C 77.6°F25.3°C 88% Calm Calm 1.0 mph1.6 kmh 30.15 in1021.0 mb 0.00 in0.0 mm 0.00 in/hr0.0 mm/hr 0.01 in0.3 mm
09:40 AM 81.1°F27.3°C 77.6°F25.3°C 89% 3.0 mph SE4.8 kmh SE 6.0 mph9.7 kmh 30.15 in1021.0 mb 0.00 in0.0 mm 0.00 in/hr0.0 mm/hr 0.01 in0.3 mm
09:35 AM 80.9°F27.2°C 77.7°F25.4°C 90% 5.0 mph SE8.0 kmh SE 8.0 mph12.9 kmh 30.15 in1021.0 mb 0.00 in0.0 mm 0.00 in/hr0.0 mm/hr 0.01 in0.3 mm
09:30 AM 80.5°F26.9°C 77.6°F25.3°C 91% 3.0 mph SE4.8 kmh SE 5.0 mph8.0 kmh 30.15 in1021.0 mb 0.00 in0.0 mm 0.00 in/hr0.0 mm/hr 0.01 in0.3 mm
09:25 AM 80.1°F26.7°C 77.2°F25.1°C 91% 2.0 mph ESE3.2 kmh ESE 3.0 mph4.8 kmh 30.15 in1021.0 mb 0.00 in0.0 mm 0.00 in/hr0.0 mm/hr 0.01 in0.3 mm
09:20 AM 79.8°F26.6°C 77.3°F25.2°C 92% 7.0 mph SE11.3 kmh SE 7.0 mph11.3 kmh 30.15 in1021.0 mb 0.00 in0.0 mm 0.00 in/hr0.0 mm/hr 0.01 in0.3 mm
09:15 AM 79.5°F26.4°C 77.0°F25.0°C 92% 7.0 mph SE11.3 kmh SE 8.0 mph12.9 kmh 30.15 in1021.0 mb 0.00 in0.0 mm 0.00 in/hr0.0 mm/hr 0.01 in0.3 mm
09:10 AM 79.4°F26.3°C 77.2°F25.1°C 93% 2.0 mph SE3.2 kmh SE 6.0 mph9.7 kmh 30.15 in1021.0 mb 0.00 in0.0 mm 0.00 in/hr0.0 mm/hr 0.01 in0.3 mm
09:05 AM 78.9°F26.1°C 77.0°F25.0°C 94% Calm Calm 1.0 mph1.6 kmh 30.14 in1020.7 mb 0.00 in0.0 mm 0.00 in/hr0.0 mm/hr 0.01 in0.3 mm
09:00 AM 78.3°F25.7°C 76.4°F24.7°C 94% 1.0 mph SE1.6 kmh SE 1.0 mph1.6 kmh 30.14 in1020.7 mb 0.00 in0.0 mm 0.00 in/hr0.0 mm/hr 0.01 in0.3 mm
08:55 AM 77.8°F25.4°C 76.3°F24.6°C 95% 4.0 mph E6.4 kmh E 5.0 mph8.0 kmh 30.15 in1021.0 mb 0.00 in0.0 mm 0.00 in/hr0.0 mm/hr 0.01 in0.3 mm
08:50 AM 77.4°F25.2°C 76.5°F24.7°C 97% 1.0 mph SE1.6 kmh SE 2.0 mph3.2 kmh 30.14 in1020.7 mb 0.00 in0.0 mm 0.00 in/hr0.0 mm/hr 0.01 in0.3 mm
08:45 AM 77.1°F25.1°C 76.2°F24.6°C 97% 2.0 mph SE3.2 kmh SE 3.0 mph4.8 kmh 30.14 in1020.7 mb 0.00 in0.0 mm 0.00 in/hr0.0 mm/hr 0.01 in0.3 mm
08:40 AM 76.8°F24.9°C 76.2°F24.6°C 98% Calm Calm -- 30.14 in1020.7 mb 0.00 in0.0 mm 0.00 in/hr0.0 mm/hr 0.01 in0.3 mm
08:35 AM 76.4°F24.7°C 75.8°F24.3°C 98% 1.0 mph ESE1.6 kmh ESE 1.0 mph1.6 kmh 30.14 in1020.7 mb 0.00 in0.0 mm 0.00 in/hr0.0 mm/hr 0.01 in0.3 mm
08:30 AM 76.2°F24.6°C 75.6°F24.2°C 98% Calm Calm 1.0 mph1.6 kmh 30.14 in1020.7 mb 0.00 in0.0 mm 0.00 in/hr0.0 mm/hr 0.01 in0.3 mm
08:25 AM 75.9°F24.4°C 75.3°F24.1°C 98% 1.0 mph ESE1.6 kmh ESE 1.0 mph1.6 kmh 30.14 in1020.7 mb 0.00 in0.0 mm 0.00 in/hr0.0 mm/hr 0.01 in0.3 mm
08:20 AM 75.6°F24.2°C 75.0°F23.9°C 98% 3.0 mph ESE4.8 kmh ESE 3.0 mph4.8 kmh 30.14 in1020.7 mb 0.00 in0.0 mm 0.00 in/hr0.0 mm/hr 0.01 in0.3 mm
08:15 AM 75.3°F24.1°C 74.7°F23.7°C 98% 1.0 mph SE1.6 kmh SE 2.0 mph3.2 kmh 30.14 in1020.7 mb 0.00 in0.0 mm 0.00 in/hr0.0 mm/hr 0.01 in0.3 mm
08:10 AM 75.1°F23.9°C 74.5°F23.6°C 98% Calm Calm 1.0 mph1.6 kmh 30.13 in1020.3 mb 0.00 in0.0 mm 0.00 in/hr0.0 mm/hr 0.01 in0.3 mm
08:05 AM 74.7°F23.7°C 74.1°F23.4°C 98% 2.0 mph SE3.2 kmh SE 2.0 mph3.2 kmh 30.13 in1020.3 mb 0.00 in0.0 mm 0.00 in/hr0.0 mm/hr 0.01 in0.3 mm
08:00 AM 74.5°F23.6°C 73.9°F23.3°C 98% Calm Calm 1.0 mph1.6 kmh 30.13 in1020.3 mb 0.00 in0.0 mm 0.00 in/hr0.0 mm/hr 0.01 in0.3 mm
07:55 AM 74.2°F23.4°C 73.6°F23.1°C 98% 1.0 mph ESE1.6 kmh ESE 1.0 mph1.6 kmh 30.13 in1020.3 mb 0.00 in0.0 mm 0.00 in/hr0.0 mm/hr 0.01 in0.3 mm
07:50 AM 74.0°F23.3°C 73.4°F23.0°C 98% 2.0 mph ESE3.2 kmh ESE 2.0 mph3.2 kmh 30.12 in1020.0 mb 0.00 in0.0 mm 0.00 in/hr0.0 mm/hr 0.01 in0.3 mm
07:45 AM 73.9°F23.3°C 73.3°F22.9°C 98% 2.0 mph ESE3.2 kmh ESE 2.0 mph3.2 kmh 30.12 in1020.0 mb 0.00 in0.0 mm 0.00 in/hr0.0 mm/hr 0.01 in0.3 mm
07:40 AM 73.7°F23.2°C 73.1°F22.8°C 98% 1.0 mph SE1.6 kmh SE 2.0 mph3.2 kmh 30.12 in1020.0 mb 0.00 in0.0 mm 0.00 in/hr0.0 mm/hr 0.01 in0.3 mm
07:35 AM 73.5°F23.1°C 72.9°F22.7°C 98% 3.0 mph ESE4.8 kmh ESE 6.0 mph9.7 kmh 30.12 in1020.0 mb 0.00 in0.0 mm 0.00 in/hr0.0 mm/hr 0.01 in0.3 mm
07:30 AM 73.5°F23.1°C 72.9°F22.7°C 98% Calm Calm 2.0 mph3.2 kmh 30.11 in1019.6 mb 0.00 in0.0 mm 0.00 in/hr0.0 mm/hr 0.01 in0.3 mm
07:25 AM 73.4°F23.0°C 72.8°F22.7°C 98% Calm Calm -- 30.11 in1019.6 mb 0.00 in0.0 mm 0.00 in/hr0.0 mm/hr 0.01 in0.3 mm
07:20 AM 73.4°F23.0°C 72.8°F22.7°C 98% 1.0 mph E1.6 kmh E 1.0 mph1.6 kmh 30.11 in1019.6 mb 0.00 in0.0 mm 0.00 in/hr0.0 mm/hr 0.01 in0.3 mm
07:15 AM 73.3°F22.9°C 72.7°F22.6°C 98% 1.0 mph E1.6 kmh E 2.0 mph3.2 kmh 30.11 in1019.6 mb 0.00 in0.0 mm 0.00 in/hr0.0 mm/hr 0.01 in0.3 mm
07:10 AM 73.3°F22.9°C 72.7°F22.6°C 98% Calm Calm 1.0 mph1.6 kmh 30.11 in1019.6 mb 0.00 in0.0 mm 0.00 in/hr0.0 mm/hr 0.01 in0.3 mm
07:05 AM 73.3°F22.9°C 72.7°F22.6°C 98% 2.0 mph E3.2 kmh E 2.0 mph3.2 kmh 30.11 in1019.6 mb 0.00 in0.0 mm 0.00 in/hr0.0 mm/hr 0.01 in0.3 mm
07:00 AM 73.2°F22.9°C 72.6°F22.6°C 98% 1.0 mph E1.6 kmh E 3.0 mph4.8 kmh 30.11 in1019.6 mb 0.00 in0.0 mm 0.00 in/hr0.0 mm/hr 0.01 in0.3 mm
06:55 AM 73.2°F22.9°C 72.6°F22.6°C 98% Calm Calm -- 30.11 in1019.6 mb 0.00 in0.0 mm 0.00 in/hr0.0 mm/hr 0.01 in0.3 mm
06:50 AM 73.4°F23.0°C 72.8°F22.7°C 98% Calm Calm -- 30.11 in1019.6 mb 0.00 in0.0 mm 0.00 in/hr0.0 mm/hr 0.01 in0.3 mm
06:45 AM 73.4°F23.0°C 72.8°F22.7°C 98% Calm Calm -- 30.10 in1019.3 mb 0.00 in0.0 mm 0.00 in/hr0.0 mm/hr 0.01 in0.3 mm
06:40 AM 73.4°F23.0°C 72.8°F22.7°C 98% Calm Calm -- 30.10 in1019.3 mb 0.00 in0.0 mm 0.00 in/hr0.0 mm/hr 0.01 in0.3 mm
06:35 AM 73.3°F22.9°C 72.7°F22.6°C 98% 2.0 mph E3.2 kmh E 2.0 mph3.2 kmh 30.10 in1019.3 mb 0.00 in0.0 mm 0.00 in/hr0.0 mm/hr 0.01 in0.3 mm
06:30 AM 73.3°F22.9°C 72.7°F22.6°C 98% Calm Calm 1.0 mph1.6 kmh 30.10 in1019.3 mb 0.00 in0.0 mm 0.00 in/hr0.0 mm/hr 0.01 in0.3 mm
06:25 AM 73.3°F22.9°C 72.7°F22.6°C 98% Calm Calm -- 30.10 in1019.3 mb 0.00 in0.0 mm 0.00 in/hr0.0 mm/hr 0.01 in0.3 mm
06:20 AM 73.3°F22.9°C 72.7°F22.6°C 98% Calm Calm -- 30.09 in1019.0 mb 0.00 in0.0 mm 0.00 in/hr0.0 mm/hr 0.01 in0.3 mm
06:15 AM 73.3°F22.9°C 72.7°F22.6°C 98% Calm Calm -- 30.09 in1019.0 mb 0.00 in0.0 mm 0.00 in/hr0.0 mm/hr 0.01 in0.3 mm
06:10 AM 73.3°F22.9°C 72.7°F22.6°C 98% 1.0 mph E1.6 kmh E 1.0 mph1.6 kmh 30.09 in1019.0 mb 0.00 in0.0 mm 0.00 in/hr0.0 mm/hr 0.01 in0.3 mm
06:05 AM 73.2°F22.9°C 72.6°F22.6°C 98% 1.0 mph E1.6 kmh E 2.0 mph3.2 kmh 30.09 in1019.0 mb 0.00 in0.0 mm 0.00 in/hr0.0 mm/hr 0.01 in0.3 mm
06:00 AM 73.1°F22.8°C 72.5°F22.5°C 98% Calm Calm -- 30.09 in1019.0 mb 0.00 in0.0 mm 0.00 in/hr0.0 mm/hr 0.01 in0.3 mm
05:55 AM 73.1°F22.8°C 72.5°F22.5°C 98% 1.0 mph E1.6 kmh E 1.0 mph1.6 kmh 30.09 in1019.0 mb 0.00 in0.0 mm 0.00 in/hr0.0 mm/hr 0.01 in0.3 mm
05:50 AM 73.1°F22.8°C 72.5°F22.5°C 98% Calm Calm -- 30.09 in1019.0 mb 0.00 in0.0 mm 0.00 in/hr0.0 mm/hr 0.01 in0.3 mm
05:45 AM 73.2°F22.9°C 72.6°F22.6°C 98% 1.0 mph E1.6 kmh E 1.0 mph1.6 kmh 30.09 in1019.0 mb 0.00 in0.0 mm 0.00 in/hr0.0 mm/hr 0.01 in0.3 mm
05:40 AM 73.2°F22.9°C 72.6°F22.6°C 98% Calm Calm -- 30.09 in1019.0 mb 0.00 in0.0 mm 0.00 in/hr0.0 mm/hr 0.01 in0.3 mm
05:35 AM 73.3°F22.9°C 72.7°F22.6°C 98% Calm Calm -- 30.09 in1019.0 mb 0.00 in0.0 mm 0.00 in/hr0.0 mm/hr 0.01 in0.3 mm
05:30 AM 73.4°F23.0°C 72.8°F22.7°C 98% 1.0 mph E1.6 kmh E 2.0 mph3.2 kmh 30.09 in1019.0 mb 0.00 in0.0 mm 0.00 in/hr0.0 mm/hr 0.01 in0.3 mm
05:25 AM 73.3°F22.9°C 72.7°F22.6°C 98% Calm Calm 1.0 mph1.6 kmh 30.08 in1018.6 mb 0.00 in0.0 mm 0.00 in/hr0.0 mm/hr 0.01 in0.3 mm
05:20 AM 73.4°F23.0°C 72.8°F22.7°C 98% Calm Calm 2.0 mph3.2 kmh 30.09 in1019.0 mb 0.00 in0.0 mm 0.00 in/hr0.0 mm/hr 0.01 in0.3 mm
05:15 AM 73.4°F23.0°C 72.8°F22.7°C 98% 1.0 mph E1.6 kmh E 2.0 mph3.2 kmh 30.09 in1019.0 mb 0.00 in0.0 mm 0.00 in/hr0.0 mm/hr 0.01 in0.3 mm
05:10 AM 73.4°F23.0°C 72.8°F22.7°C 98% 1.0 mph E1.6 kmh E 2.0 mph3.2 kmh 30.08 in1018.6 mb 0.00 in0.0 mm 0.00 in/hr0.0 mm/hr 0.01 in0.3 mm
05:05 AM 73.3°F22.9°C 72.7°F22.6°C 98% 1.0 mph E1.6 kmh E 3.0 mph4.8 kmh 30.08 in1018.6 mb 0.00 in0.0 mm 0.00 in/hr0.0 mm/hr 0.01 in0.3 mm
05:00 AM 73.3°F22.9°C 72.7°F22.6°C 98% 2.0 mph E3.2 kmh E 3.0 mph4.8 kmh 30.08 in1018.6 mb 0.00 in0.0 mm 0.00 in/hr0.0 mm/hr 0.01 in0.3 mm
04:55 AM 73.3°F22.9°C 72.7°F22.6°C 98% 2.0 mph E3.2 kmh E 2.0 mph3.2 kmh 30.08 in1018.6 mb 0.00 in0.0 mm 0.00 in/hr0.0 mm/hr 0.01 in0.3 mm
04:50 AM 73.3°F22.9°C 72.7°F22.6°C 98% Calm Calm 1.0 mph1.6 kmh 30.09 in1019.0 mb 0.00 in0.0 mm 0.00 in/hr0.0 mm/hr 0.01 in0.3 mm
04:45 AM 73.2°F22.9°C 72.6°F22.6°C 98% Calm Calm -- 30.09 in1019.0 mb 0.00 in0.0 mm 0.00 in/hr0.0 mm/hr 0.01 in0.3 mm
04:40 AM 73.2°F22.9°C 72.6°F22.6°C 98% Calm Calm 1.0 mph1.6 kmh 30.09 in1019.0 mb 0.00 in0.0 mm 0.00 in/hr0.0 mm/hr 0.01 in0.3 mm
04:35 AM 73.3°F22.9°C 72.7°F22.6°C 98% Calm Calm 1.0 mph1.6 kmh 30.09 in1019.0 mb 0.00 in0.0 mm 0.00 in/hr0.0 mm/hr 0.01 in0.3 mm
04:30 AM 73.1°F22.8°C 72.5°F22.5°C 98% 2.0 mph E3.2 kmh E 2.0 mph3.2 kmh 30.09 in1019.0 mb 0.00 in0.0 mm 0.00 in/hr0.0 mm/hr 0.01 in0.3 mm
04:25 AM 73.0°F22.8°C 72.4°F22.4°C 98% 2.0 mph E3.2 kmh E 2.0 mph3.2 kmh 30.09 in1019.0 mb 0.00 in0.0 mm 0.00 in/hr0.0 mm/hr 0.01 in0.3 mm
04:20 AM 73.0°F22.8°C 72.4°F22.4°C 98% Calm Calm 1.0 mph1.6 kmh 30.09 in1019.0 mb 0.00 in0.0 mm 0.00 in/hr0.0 mm/hr 0.01 in0.3 mm
04:15 AM 73.0°F22.8°C 72.4°F22.4°C 98% 1.0 mph ESE1.6 kmh ESE 1.0 mph1.6 kmh 30.09 in1019.0 mb 0.00 in0.0 mm 0.00 in/hr0.0 mm/hr 0.01 in0.3 mm
04:10 AM 73.0°F22.8°C 72.4°F22.4°C 98% Calm Calm -- 30.09 in1019.0 mb 0.00 in0.0 mm 0.00 in/hr0.0 mm/hr 0.01 in0.3 mm
04:05 AM 73.0°F22.8°C 72.4°F22.4°C 98% Calm Calm -- 30.09 in1019.0 mb 0.00 in0.0 mm 0.00 in/hr0.0 mm/hr 0.01 in0.3 mm
04:00 AM 73.1°F22.8°C 72.5°F22.5°C 98% Calm Calm -- 30.10 in1019.3 mb 0.00 in0.0 mm 0.00 in/hr0.0 mm/hr 0.01 in0.3 mm
03:55 AM 73.2°F22.9°C 72.6°F22.6°C 98% Calm Calm -- 30.10 in1019.3 mb 0.00 in0.0 mm 0.00 in/hr0.0 mm/hr 0.01 in0.3 mm
03:50 AM 73.2°F22.9°C 72.6°F22.6°C 98% 1.0 mph ESE1.6 kmh ESE 1.0 mph1.6 kmh 30.10 in1019.3 mb 0.00 in0.0 mm 0.00 in/hr0.0 mm/hr 0.01 in0.3 mm
03:45 AM 73.2°F22.9°C 72.6°F22.6°C 98% 1.0 mph ESE1.6 kmh ESE 1.0 mph1.6 kmh 30.10 in1019.3 mb 0.00 in0.0 mm 0.00 in/hr0.0 mm/hr 0.01 in0.3 mm
03:40 AM 73.2°F22.9°C 72.6°F22.6°C 98% Calm Calm -- 30.10 in1019.3 mb 0.00 in0.0 mm 0.00 in/hr0.0 mm/hr 0.01 in0.3 mm
03:35 AM 73.3°F22.9°C 72.7°F22.6°C 98% Calm Calm -- 30.10 in1019.3 mb 0.00 in0.0 mm 0.00 in/hr0.0 mm/hr 0.01 in0.3 mm
03:30 AM 73.2°F22.9°C 72.6°F22.6°C 98% Calm Calm -- 30.10 in1019.3 mb 0.00 in0.0 mm 0.00 in/hr0.0 mm/hr 0.01 in0.3 mm
03:25 AM 73.3°F22.9°C 72.7°F22.6°C 98% Calm Calm -- 30.11 in1019.6 mb 0.00 in0.0 mm 0.00 in/hr0.0 mm/hr 0.01 in0.3 mm
03:20 AM 73.3°F22.9°C 72.7°F22.6°C 98% Calm Calm -- 30.11 in1019.6 mb 0.00 in0.0 mm 0.00 in/hr0.0 mm/hr 0.01 in0.3 mm
03:15 AM 73.3°F22.9°C 72.7°F22.6°C 98% Calm Calm -- 30.11 in1019.6 mb 0.00 in0.0 mm 0.00 in/hr0.0 mm/hr 0.01 in0.3 mm
03:10 AM 73.2°F22.9°C 72.6°F22.6°C 98% Calm Calm 1.0 mph1.6 kmh 30.11 in1019.6 mb 0.00 in0.0 mm 0.00 in/hr0.0 mm/hr 0.01 in0.3 mm
03:05 AM 73.2°F22.9°C 72.6°F22.6°C 98% Calm Calm 1.0 mph1.6 kmh 30.11 in1019.6 mb 0.00 in0.0 mm 0.00 in/hr0.0 mm/hr 0.01 in0.3 mm
03:00 AM 73.3°F22.9°C 72.7°F22.6°C 98% Calm Calm -- 30.11 in1019.6 mb 0.00 in0.0 mm 0.00 in/hr0.0 mm/hr 0.01 in0.3 mm
02:55 AM 73.3°F22.9°C 72.7°F22.6°C 98% Calm Calm -- 30.12 in1020.0 mb 0.00 in0.0 mm 0.00 in/hr0.0 mm/hr 0.01 in0.3 mm
02:50 AM 73.3°F22.9°C 72.7°F22.6°C 98% Calm Calm -- 30.12 in1020.0 mb 0.00 in0.0 mm 0.00 in/hr0.0 mm/hr 0.01 in0.3 mm
02:45 AM 73.3°F22.9°C 72.7°F22.6°C 98% 1.0 mph ESE1.6 kmh ESE 1.0 mph1.6 kmh 30.12 in1020.0 mb 0.00 in0.0 mm 0.00 in/hr0.0 mm/hr 0.01 in0.3 mm
02:40 AM 73.4°F23.0°C 72.8°F22.7°C 98% 2.0 mph ESE3.2 kmh ESE 2.0 mph3.2 kmh 30.12 in1020.0 mb 0.00 in0.0 mm 0.00 in/hr0.0 mm/hr 0.01 in0.3 mm
02:35 AM 73.4°F23.0°C 72.8°F22.7°C 98% Calm Calm -- 30.13 in1020.3 mb 0.00 in0.0 mm 0.00 in/hr0.0 mm/hr 0.01 in0.3 mm
02:30 AM 73.4°F23.0°C 72.8°F22.7°C 98% Calm Calm -- 30.13 in1020.3 mb 0.00 in0.0 mm 0.00 in/hr0.0 mm/hr 0.01 in0.3 mm
02:25 AM 73.6°F23.1°C 73.0°F22.8°C 98% Calm Calm -- 30.13 in1020.3 mb 0.01 in0.3 mm 0.00 in/hr0.0 mm/hr 0.01 in0.3 mm
02:20 AM 73.7°F23.2°C 73.1°F22.8°C 98% 2.0 mph ESE3.2 kmh ESE 2.0 mph3.2 kmh 30.13 in1020.3 mb 0.01 in0.3 mm 0.00 in/hr0.0 mm/hr 0.01 in0.3 mm
02:15 AM 73.7°F23.2°C 73.1°F22.8°C 98% Calm Calm 1.0 mph1.6 kmh 30.13 in1020.3 mb 0.01 in0.3 mm 0.00 in/hr0.0 mm/hr 0.01 in0.3 mm
02:10 AM 73.7°F23.2°C 73.1°F22.8°C 98% 1.0 mph ESE1.6 kmh ESE 1.0 mph1.6 kmh 30.13 in1020.3 mb 0.01 in0.3 mm 0.00 in/hr0.0 mm/hr 0.01 in0.3 mm
02:05 AM 73.7°F23.2°C 73.1°F22.8°C 98% Calm Calm -- 30.14 in1020.7 mb 0.01 in0.3 mm 0.00 in/hr0.0 mm/hr 0.01 in0.3 mm
02:00 AM 73.6°F23.1°C 73.0°F22.8°C 98% Calm Calm -- 30.14 in1020.7 mb 0.01 in0.3 mm 0.00 in/hr0.0 mm/hr 0.01 in0.3 mm
01:55 AM 73.6°F23.1°C 73.0°F22.8°C 98% Calm Calm -- 30.14 in1020.7 mb 0.01 in0.3 mm 0.00 in/hr0.0 mm/hr 0.01 in0.3 mm
01:50 AM 73.6°F23.1°C 73.0°F22.8°C 98% Calm Calm -- 30.14 in1020.7 mb 0.01 in0.3 mm 0.00 in/hr0.0 mm/hr 0.01 in0.3 mm
01:45 AM 73.6°F23.1°C 73.0°F22.8°C 98% Calm Calm -- 30.14 in1020.7 mb 0.01 in0.3 mm 0.00 in/hr0.0 mm/hr 0.01 in0.3 mm
01:40 AM 73.6°F23.1°C 73.0°F22.8°C 98% Calm Calm -- 30.14 in1020.7 mb 0.01 in0.3 mm 0.00 in/hr0.0 mm/hr 0.01 in0.3 mm
01:35 AM 73.6°F23.1°C 73.0°F22.8°C 98% Calm Calm -- 30.14 in1020.7 mb 0.01 in0.3 mm 0.00 in/hr0.0 mm/hr 0.01 in0.3 mm
01:30 AM 73.6°F23.1°C 73.0°F22.8°C 98% Calm Calm -- 30.14 in1020.7 mb 0.01 in0.3 mm 0.00 in/hr0.0 mm/hr 0.01 in0.3 mm
01:25 AM 73.7°F23.2°C 73.1°F22.8°C 98% Calm Calm -- 30.14 in1020.7 mb 0.01 in0.3 mm 0.00 in/hr0.0 mm/hr 0.01 in0.3 mm
01:20 AM 73.6°F23.1°C 73.0°F22.8°C 98% Calm Calm -- 30.14 in1020.7 mb 0.01 in0.3 mm 0.12 in/hr3.0 mm/hr 0.01 in0.3 mm
01:15 AM 73.7°F23.2°C 73.1°F22.8°C 98% Calm Calm -- 30.14 in1020.7 mb 0.00 in0.0 mm 0.00 in/hr0.0 mm/hr 0.00 in0.0 mm
01:10 AM 73.7°F23.2°C 73.1°F22.8°C 98% Calm Calm -- 30.14 in1020.7 mb 0.00 in0.0 mm 0.00 in/hr0.0 mm/hr 0.00 in0.0 mm
01:05 AM 73.7°F23.2°C 73.1°F22.8°C 98% Calm Calm -- 30.15 in1021.0 mb 0.00 in0.0 mm 0.00 in/hr0.0 mm/hr 0.00 in0.0 mm
01:00 AM 73.7°F23.2°C 73.1°F22.8°C 98% Calm Calm -- 30.15 in1021.0 mb 0.00 in0.0 mm 0.00 in/hr0.0 mm/hr 0.00 in0.0 mm
12:55 AM 73.9°F23.3°C 73.3°F22.9°C 98% Calm Calm -- 30.15 in1021.0 mb 0.00 in0.0 mm 0.00 in/hr0.0 mm/hr 0.00 in0.0 mm
12:50 AM 73.9°F23.3°C 73.3°F22.9°C 98% Calm Calm -- 30.15 in1021.0 mb 0.00 in0.0 mm 0.00 in/hr0.0 mm/hr 0.00 in0.0 mm
12:45 AM 73.9°F23.3°C 73.3°F22.9°C 98% Calm Calm -- 30.15 in1021.0 mb 0.00 in0.0 mm 0.00 in/hr0.0 mm/hr 0.00 in0.0 mm
12:40 AM 74.0°F23.3°C 73.4°F23.0°C 98% Calm Calm -- 30.15 in1021.0 mb 0.00 in0.0 mm 0.00 in/hr0.0 mm/hr 0.00 in0.0 mm
12:35 AM 73.9°F23.3°C 73.0°F22.8°C 97% Calm Calm -- 30.15 in1021.0 mb 0.00 in0.0 mm 0.00 in/hr0.0 mm/hr 0.00 in0.0 mm
12:30 AM 74.0°F23.3°C 73.1°F22.8°C 97% Calm Calm -- 30.15 in1021.0 mb 0.00 in0.0 mm 0.00 in/hr0.0 mm/hr 0.00 in0.0 mm
12:25 AM 74.0°F23.3°C 73.1°F22.8°C 97% Calm Calm -- 30.15 in1021.0 mb 0.00 in0.0 mm 0.00 in/hr0.0 mm/hr 0.00 in0.0 mm
12:20 AM 74.0°F23.3°C 73.1°F22.8°C 97% 2.0 mph ESE3.2 kmh ESE 2.0 mph3.2 kmh 30.15 in1021.0 mb 0.00 in0.0 mm 0.00 in/hr0.0 mm/hr 0.00 in0.0 mm
12:15 AM 74.1°F23.4°C 73.2°F22.9°C 97% Calm Calm 1.0 mph1.6 kmh 30.15 in1021.0 mb 0.00 in0.0 mm 0.00 in/hr0.0 mm/hr 0.00 in0.0 mm
12:10 AM 74.2°F23.4°C 73.3°F22.9°C 97% 1.0 mph ESE1.6 kmh ESE 1.0 mph1.6 kmh 30.15 in1021.0 mb 0.00 in0.0 mm 0.00 in/hr0.0 mm/hr 0.00 in0.0 mm
12:05 AM 74.3°F23.5°C 73.4°F23.0°C 97% 1.0 mph SE1.6 kmh SE 1.0 mph1.6 kmh 30.15 in1021.0 mb 0.00 in0.0 mm 0.00 in/hr0.0 mm/hr 0.00 in0.0 mm
12:00 AM 74.3°F23.5°C 73.4°F23.0°C 97% Calm Calm -- 30.15 in1021.0 mb 0.00 in0.0 mm 0.00 in/hr0.0 mm/hr 0.00 in0.0 mm